sensor_id;sensor_type;location;lat;lon;timestamp;pressure;altitude;pressure_sealevel;temperature;humidity
68226;BME280;55045;49.410;11.030;2023-12-14T00:00:16;96957.31;;;6.21;100.00
68226;BME280;55045;49.410;11.030;2023-12-14T00:03:20;96960.88;;;6.18;100.00
68226;BME280;55045;49.410;11.030;2023-12-14T00:06:25;96963.31;;;6.21;100.00
68226;BME280;55045;49.410;11.030;2023-12-14T00:09:29;96965.13;;;6.19;100.00
68226;BME280;55045;49.410;11.030;2023-12-14T00:12:32;96968.16;;;6.27;100.00
68226;BME280;55045;49.410;11.030;2023-12-14T00:15:36;96972.75;;;6.21;100.00
68226;BME280;55045;49.410;11.030;2023-12-14T00:18:40;96973.91;;;6.15;100.00
68226;BME280;55045;49.410;11.030;2023-12-14T00:21:45;96973.91;;;6.15;100.00
68226;BME280;55045;49.410;11.030;2023-12-14T00:24:48;96975.66;;;6.32;100.00
68226;BME280;55045;49.410;11.030;2023-12-14T00:27:52;96976.25;;;6.37;100.00
68226;BME280;55045;49.410;11.030;2023-12-14T00:30:55;96984.88;;;6.53;100.00
68226;BME280;55045;49.410;11.030;2023-12-14T00:33:59;96992.59;;;6.71;100.00
68226;BME280;55045;49.410;11.030;2023-12-14T00:37:04;96998.44;;;6.40;100.00
68226;BME280;55045;49.410;11.030;2023-12-14T00:40:09;96999.13;;;6.43;100.00
68226;BME280;55045;49.410;11.030;2023-12-14T00:43:12;97006.25;;;6.38;100.00
68226;BME280;55045;49.410;11.030;2023-12-14T00:46:16;97008.75;;;6.40;100.00
68226;BME280;55045;49.410;11.030;2023-12-14T00:49:19;97010.78;;;6.33;100.00
68226;BME280;55045;49.410;11.030;2023-12-14T00:52:24;97018.50;;;6.33;100.00
68226;BME280;55045;49.410;11.030;2023-12-14T00:55:28;97023.53;;;6.36;100.00
68226;BME280;55045;49.410;11.030;2023-12-14T00:58:31;97033.84;;;6.36;100.00
68226;BME280;55045;49.410;11.030;2023-12-14T01:01:35;97029.59;;;6.35;100.00
68226;BME280;55045;49.410;11.030;2023-12-14T01:04:39;97040.66;;;6.37;100.00
68226;BME280;55045;49.410;11.030;2023-12-14T01:07:43;97053.88;;;6.29;100.00
68226;BME280;55045;49.410;11.030;2023-12-14T01:10:47;97050.78;;;6.40;100.00
68226;BME280;55045;49.410;11.030;2023-12-14T01:13:51;97053.59;;;6.35;100.00
68226;BME280;55045;49.410;11.030;2023-12-14T01:16:54;97064.94;;;6.31;100.00
68226;BME280;55045;49.410;11.030;2023-12-14T01:19:58;97070.81;;;6.35;100.00
68226;BME280;55045;49.410;11.030;2023-12-14T01:23:03;97079.47;;;6.32;100.00
68226;BME280;55045;49.410;11.030;2023-12-14T01:26:06;97079.94;;;6.23;100.00
68226;BME280;55045;49.410;11.030;2023-12-14T01:29:10;97080.97;;;6.19;100.00
68226;BME280;55045;49.410;11.030;2023-12-14T01:32:14;97096.72;;;6.13;100.00
68226;BME280;55045;49.410;11.030;2023-12-14T01:35:17;97087.25;;;6.14;100.00
68226;BME280;55045;49.410;11.030;2023-12-14T01:38:22;97086.78;;;6.05;100.00
68226;BME280;55045;49.410;11.030;2023-12-14T01:41:26;97084.06;;;6.09;100.00
68226;BME280;55045;49.410;11.030;2023-12-14T01:44:29;97090.78;;;6.11;100.00
68226;BME280;55045;49.410;11.030;2023-12-14T01:47:33;97095.00;;;6.14;100.00
68226;BME280;55045;49.410;11.030;2023-12-14T01:50:36;97105.13;;;6.17;100.00
68226;BME280;55045;49.410;11.030;2023-12-14T01:53:41;97097.50;;;6.15;100.00
68226;BME280;55045;49.410;11.030;2023-12-14T01:56:47;97104.31;;;6.16;100.00
68226;BME280;55045;49.410;11.030;2023-12-14T01:59:51;97111.94;;;6.18;100.00
68226;BME280;55045;49.410;11.030;2023-12-14T02:02:54;97113.78;;;6.16;100.00
68226;BME280;55045;49.410;11.030;2023-12-14T02:05:58;97101.16;;;6.10;100.00
68226;BME280;55045;49.410;11.030;2023-12-14T02:09:04;97115.28;;;6.20;100.00
68226;BME280;55045;49.410;11.030;2023-12-14T02:12:08;97118.28;;;6.11;100.00
68226;BME280;55045;49.410;11.030;2023-12-14T02:15:12;97120.78;;;6.12;100.00
68226;BME280;55045;49.410;11.030;2023-12-14T02:18:15;97130.47;;;6.26;100.00
68226;BME280;55045;49.410;11.030;2023-12-14T02:21:19;97131.78;;;6.16;100.00
68226;BME280;55045;49.410;11.030;2023-12-14T02:24:24;97139.44;;;6.17;100.00
68226;BME280;55045;49.410;11.030;2023-12-14T02:27:27;97138.69;;;6.15;100.00
68226;BME280;55045;49.410;11.030;2023-12-14T02:30:31;97148.81;;;6.18;100.00
68226;BME280;55045;49.410;11.030;2023-12-14T02:33:34;97147.44;;;6.11;100.00
68226;BME280;55045;49.410;11.030;2023-12-14T02:36:38;97149.09;;;6.12;100.00
68226;BME280;55045;49.410;11.030;2023-12-14T02:39:43;97156.69;;;6.15;100.00
68226;BME280;55045;49.410;11.030;2023-12-14T02:42:49;97157.72;;;6.11;100.00
68226;BME280;55045;49.410;11.030;2023-12-14T02:45:53;97160.38;;;6.10;100.00
68226;BME280;55045;49.410;11.030;2023-12-14T02:48:57;97155.22;;;6.10;100.00
68226;BME280;55045;49.410;11.030;2023-12-14T02:52:01;97168.16;;;6.08;100.00
68226;BME280;55045;49.410;11.030;2023-12-14T02:55:06;97164.53;;;6.12;100.00
68226;BME280;55045;49.410;11.030;2023-12-14T02:58:10;97166.91;;;6.17;100.00
68226;BME280;55045;49.410;11.030;2023-12-14T03:01:14;97175.66;;;6.13;100.00
68226;BME280;55045;49.410;11.030;2023-12-14T03:04:17;97181.53;;;6.16;100.00
68226;BME280;55045;49.410;11.030;2023-12-14T03:07:21;97190.34;;;6.11;100.00
68226;BME280;55045;49.410;11.030;2023-12-14T03:10:26;97184.44;;;6.09;100.00
68226;BME280;55045;49.410;11.030;2023-12-14T03:13:29;97188.16;;;6.03;100.00
68226;BME280;55045;49.410;11.030;2023-12-14T03:16:33;97196.81;;;6.00;100.00
68226;BME280;55045;49.410;11.030;2023-12-14T03:19:39;97199.41;;;6.19;100.00
68226;BME280;55045;49.410;11.030;2023-12-14T03:22:43;97202.31;;;6.12;100.00
68226;BME280;55045;49.410;11.030;2023-12-14T03:25:48;97205.13;;;6.07;100.00
68226;BME280;55045;49.410;11.030;2023-12-14T03:28:52;97210.59;;;5.99;100.00
68226;BME280;55045;49.410;11.030;2023-12-14T03:31:56;97214.72;;;6.03;100.00
68226;BME280;55045;49.410;11.030;2023-12-14T03:34:59;97230.16;;;6.03;100.00
68226;BME280;55045;49.410;11.030;2023-12-14T03:38:03;97235.31;;;6.03;100.00
68226;BME280;55045;49.410;11.030;2023-12-14T03:41:08;97238.59;;;6.07;100.00
68226;BME280;55045;49.410;11.030;2023-12-14T03:44:12;97243.88;;;6.04;100.00
68226;BME280;55045;49.410;11.030;2023-12-14T03:47:15;97242.91;;;6.06;100.00
68226;BME280;55045;49.410;11.030;2023-12-14T03:50:19;97243.44;;;5.94;100.00
68226;BME280;55045;49.410;11.030;2023-12-14T03:53:23;97247.13;;;6.07;100.00
68226;BME280;55045;49.410;11.030;2023-12-14T03:56:28;97258.34;;;6.06;100.00
68226;BME280;55045;49.410;11.030;2023-12-14T03:59:32;97263.50;;;6.06;100.00
68226;BME280;55045;49.410;11.030;2023-12-14T04:02:36;97272.44;;;5.98;100.00
68226;BME280;55045;49.410;11.030;2023-12-14T04:05:40;97284.47;;;5.97;100.00
68226;BME280;55045;49.410;11.030;2023-12-14T04:08:45;97291.16;;;6.01;100.00
68226;BME280;55045;49.410;11.030;2023-12-14T04:11:50;97284.16;;;5.85;100.00
68226;BME280;55045;49.410;11.030;2023-12-14T04:14:53;97290.56;;;5.74;100.00
68226;BME280;55045;49.410;11.030;2023-12-14T04:17:57;97287.94;;;5.76;100.00
68226;BME280;55045;49.410;11.030;2023-12-14T04:21:00;97296.09;;;5.86;100.00
68226;BME280;55045;49.410;11.030;2023-12-14T04:24:04;97310.72;;;5.85;100.00
68226;BME280;55045;49.410;11.030;2023-12-14T04:27:10;97306.16;;;5.92;100.00
68226;BME280;55045;49.410;11.030;2023-12-14T04:34:21;97320.53;;;5.75;100.00
68226;BME280;55045;49.410;11.030;2023-12-14T04:37:25;97333.09;;;5.83;100.00
68226;BME280;55045;49.410;11.030;2023-12-14T04:40:28;97337.13;;;5.89;100.00
68226;BME280;55045;49.410;11.030;2023-12-14T04:43:32;97312.69;;;5.78;100.00
68226;BME280;55045;49.410;11.030;2023-12-14T04:46:35;97336.09;;;5.94;100.00
68226;BME280;55045;49.410;11.030;2023-12-14T04:49:41;97345.41;;;5.97;100.00
68226;BME280;55045;49.410;11.030;2023-12-14T04:52:45;97345.56;;;5.94;100.00
68226;BME280;55045;49.410;11.030;2023-12-14T04:55:49;97355.47;;;6.03;100.00
68226;BME280;55045;49.410;11.030;2023-12-14T04:58:52;97306.56;;;5.61;100.00
68226;BME280;55045;49.410;11.030;2023-12-14T05:01:56;97367.03;;;5.93;100.00
68226;BME280;55045;49.410;11.030;2023-12-14T05:05:01;97367.09;;;5.91;100.00
68226;BME280;55045;49.410;11.030;2023-12-14T05:08:05;97369.56;;;5.94;100.00
68226;BME280;55045;49.410;11.030;2023-12-14T05:11:09;97368.72;;;5.94;100.00
68226;BME280;55045;49.410;11.030;2023-12-14T05:14:13;97379.00;;;5.94;100.00
68226;BME280;55045;49.410;11.030;2023-12-14T05:17:17;97375.19;;;6.02;100.00
68226;BME280;55045;49.410;11.030;2023-12-14T05:20:22;97377.06;;;5.99;100.00
68226;BME280;55045;49.410;11.030;2023-12-14T05:23:25;97382.22;;;5.99;100.00
68226;BME280;55045;49.410;11.030;2023-12-14T05:26:30;97372.84;;;5.76;100.00
68226;BME280;55045;49.410;11.030;2023-12-14T05:29:33;97396.41;;;5.87;100.00
68226;BME280;55045;49.410;11.030;2023-12-14T05:32:37;97402.22;;;5.92;100.00
68226;BME280;55045;49.410;11.030;2023-12-14T05:35:42;97403.22;;;5.88;100.00
68226;BME280;55045;49.410;11.030;2023-12-14T05:38:46;97414.59;;;5.83;100.00
68226;BME280;55045;49.410;11.030;2023-12-14T05:41:50;97424.31;;;5.76;100.00
68226;BME280;55045;49.410;11.030;2023-12-14T05:44:54;97435.59;;;5.72;100.00
68226;BME280;55045;49.410;11.030;2023-12-14T05:47:57;97434.81;;;5.70;100.00
68226;BME280;55045;49.410;11.030;2023-12-14T05:51:03;97436.75;;;5.65;100.00
68226;BME280;55045;49.410;11.030;2023-12-14T05:54:06;97436.28;;;5.55;100.00
68226;BME280;55045;49.410;11.030;2023-12-14T05:57:10;97439.00;;;5.50;100.00
68226;BME280;55045;49.410;11.030;2023-12-14T06:00:17;97447.94;;;5.42;100.00
68226;BME280;55045;49.410;11.030;2023-12-14T06:03:20;97453.13;;;5.40;100.00
68226;BME280;55045;49.410;11.030;2023-12-14T06:06:25;97464.00;;;5.25;100.00
68226;BME280;55045;49.410;11.030;2023-12-14T06:09:29;97467.47;;;5.24;100.00
68226;BME280;55045;49.410;11.030;2023-12-14T06:12:36;97472.34;;;5.32;100.00
68226;BME280;55045;49.410;11.030;2023-12-14T06:15:40;97489.78;;;5.24;100.00
68226;BME280;55045;49.410;11.030;2023-12-14T06:18:43;97477.38;;;5.11;100.00
68226;BME280;55045;49.410;11.030;2023-12-14T06:21:48;97491.25;;;5.29;100.00
68226;BME280;55045;49.410;11.030;2023-12-14T06:24:52;97494.00;;;5.25;100.00
68226;BME280;55045;49.410;11.030;2023-12-14T06:27:55;97503.47;;;5.24;100.00
68226;BME280;55045;49.410;11.030;2023-12-14T06:30:59;97501.66;;;5.26;100.00
68226;BME280;55045;49.410;11.030;2023-12-14T06:34:04;97507.19;;;5.39;100.00
68226;BME280;55045;49.410;11.030;2023-12-14T06:37:09;97503.22;;;5.30;100.00
68226;BME280;55045;49.410;11.030;2023-12-14T06:40:12;97498.47;;;5.43;100.00
68226;BME280;55045;49.410;11.030;2023-12-14T06:43:16;97519.88;;;5.43;100.00
68226;BME280;55045;49.410;11.030;2023-12-14T06:46:20;97523.69;;;5.33;100.00
68226;BME280;55045;49.410;11.030;2023-12-14T06:49:23;97534.13;;;5.29;100.00
68226;BME280;55045;49.410;11.030;2023-12-14T06:52:28;97538.22;;;5.34;100.00
68226;BME280;55045;49.410;11.030;2023-12-14T06:55:32;97552.63;;;5.38;100.00
68226;BME280;55045;49.410;11.030;2023-12-14T06:58:35;97549.78;;;5.46;100.00
68226;BME280;55045;49.410;11.030;2023-12-14T07:01:39;97565.50;;;5.38;100.00
68226;BME280;55045;49.410;11.030;2023-12-14T07:04:43;97573.66;;;5.49;100.00
68226;BME280;55045;49.410;11.030;2023-12-14T07:08:16;97590.31;;;5.39;100.00
68226;BME280;55045;49.410;11.030;2023-12-14T07:11:20;97602.06;;;5.46;100.00
68226;BME280;55045;49.410;11.030;2023-12-14T07:14:24;97605.84;;;5.36;100.00
68226;BME280;55045;49.410;11.030;2023-12-14T07:17:28;97605.53;;;5.45;100.00
68226;BME280;55045;49.410;11.030;2023-12-14T07:20:31;97617.81;;;5.61;100.00
68226;BME280;55045;49.410;11.030;2023-12-14T07:23:36;97610.41;;;5.53;100.00
68226;BME280;55045;49.410;11.030;2023-12-14T07:26:47;97623.81;;;5.38;100.00
68226;BME280;55045;49.410;11.030;2023-12-14T07:29:52;97627.31;;;5.35;100.00
68226;BME280;55045;49.410;11.030;2023-12-14T07:32:56;97625.38;;;5.42;100.00
68226;BME280;55045;49.410;11.030;2023-12-14T07:35:59;97633.88;;;5.44;100.00
68226;BME280;55045;49.410;11.030;2023-12-14T07:39:08;97642.91;;;5.56;100.00
68226;BME280;55045;49.410;11.030;2023-12-14T07:42:12;97646.38;;;5.55;100.00
68226;BME280;55045;49.410;11.030;2023-12-14T07:45:21;97642.25;;;5.49;100.00
68226;BME280;55045;49.410;11.030;2023-12-14T07:48:25;97656.97;;;5.45;100.00
68226;BME280;55045;49.410;11.030;2023-12-14T07:51:29;97656.19;;;5.43;100.00
68226;BME280;55045;49.410;11.030;2023-12-14T07:54:34;97658.66;;;5.46;100.00
68226;BME280;55045;49.410;11.030;2023-12-14T07:57:41;97656.84;;;5.48;100.00
68226;BME280;55045;49.410;11.030;2023-12-14T08:00:45;97661.16;;;5.48;100.00
68226;BME280;55045;49.410;11.030;2023-12-14T08:04:02;97667.03;;;5.52;100.00
68226;BME280;55045;49.410;11.030;2023-12-14T08:08:32;97666.09;;;5.54;100.00
68226;BME280;55045;49.410;11.030;2023-12-14T08:13:04;97671.06;;;5.59;100.00
68226;BME280;55045;49.410;11.030;2023-12-14T08:22:33;97701.47;;;5.72;100.00
68226;BME280;55045;49.410;11.030;2023-12-14T08:27:02;97694.09;;;5.87;100.00
68226;BME280;55045;49.410;11.030;2023-12-14T08:44:43;97709.25;;;5.96;100.00
68226;BME280;55045;49.410;11.030;2023-12-14T08:48:05;97745.97;;;6.24;100.00
68226;BME280;55045;49.410;11.030;2023-12-14T08:51:10;97740.06;;;6.21;100.00
68226;BME280;55045;49.410;11.030;2023-12-14T08:54:13;97744.38;;;6.20;100.00
68226;BME280;55045;49.410;11.030;2023-12-14T08:57:17;97758.38;;;6.37;100.00
68226;BME280;55045;49.410;11.030;2023-12-14T09:00:27;97753.50;;;6.29;100.00
68226;BME280;55045;49.410;11.030;2023-12-14T09:03:31;97767.28;;;6.28;100.00
68226;BME280;55045;49.410;11.030;2023-12-14T09:06:35;97766.50;;;6.26;100.00
68226;BME280;55045;49.410;11.030;2023-12-14T09:09:38;97772.56;;;6.25;100.00
68226;BME280;55045;49.410;11.030;2023-12-14T09:12:41;97782.72;;;6.28;100.00
68226;BME280;55045;49.410;11.030;2023-12-14T09:15:47;97787.09;;;6.26;100.00
68226;BME280;55045;49.410;11.030;2023-12-14T09:18:54;97793.75;;;6.31;100.00
68226;BME280;55045;49.410;11.030;2023-12-14T09:21:58;97791.81;;;6.38;100.00
68226;BME280;55045;49.410;11.030;2023-12-14T09:25:02;97797.91;;;6.35;100.00
68226;BME280;55045;49.410;11.030;2023-12-14T09:28:06;97799.66;;;6.35;100.00
68226;BME280;55045;49.410;11.030;2023-12-14T09:31:12;97799.53;;;6.38;100.00
68226;BME280;55045;49.410;11.030;2023-12-14T09:34:15;97809.72;;;6.41;100.00
68226;BME280;55045;49.410;11.030;2023-12-14T09:37:20;97808.03;;;6.40;100.00
68226;BME280;55045;49.410;11.030;2023-12-14T09:40:23;97818.34;;;6.40;100.00
68226;BME280;55045;49.410;11.030;2023-12-14T09:43:27;97824.41;;;6.39;100.00
68226;BME280;55045;49.410;11.030;2023-12-14T09:46:33;97835.25;;;6.47;100.00
68226;BME280;55045;49.410;11.030;2023-12-14T09:49:38;97830.00;;;6.50;100.00
68226;BME280;55045;49.410;11.030;2023-12-14T09:52:45;97832.44;;;6.53;100.00
68226;BME280;55045;49.410;11.030;2023-12-14T09:55:51;97835.50;;;6.64;100.00
68226;BME280;55045;49.410;11.030;2023-12-14T09:58:54;97829.34;;;6.90;100.00
68226;BME280;55045;49.410;11.030;2023-12-14T10:02:11;97841.97;;;6.98;100.00
68226;BME280;55045;49.410;11.030;2023-12-14T10:05:15;97847.19;;;6.97;100.00
68226;BME280;55045;49.410;11.030;2023-12-14T10:08:19;97849.19;;;6.88;100.00
68226;BME280;55045;49.410;11.030;2023-12-14T10:11:23;97848.63;;;6.80;100.00
68226;BME280;55045;49.410;11.030;2023-12-14T10:14:27;97849.97;;;6.90;100.00
68226;BME280;55045;49.410;11.030;2023-12-14T10:17:33;97848.31;;;6.89;100.00
68226;BME280;55045;49.410;11.030;2023-12-14T10:20:37;97852.16;;;7.01;100.00
68226;BME280;55045;49.410;11.030;2023-12-14T10:23:40;97863.41;;;6.99;100.00
68226;BME280;55045;49.410;11.030;2023-12-14T10:26:50;97860.06;;;6.97;100.00
68226;BME280;55045;49.410;11.030;2023-12-14T10:29:55;97860.72;;;7.02;100.00
68226;BME280;55045;49.410;11.030;2023-12-14T10:34:21;97871.44;;;6.91;100.00
68226;BME280;55045;49.410;11.030;2023-12-14T10:37:25;97862.94;;;6.89;100.00
68226;BME280;55045;49.410;11.030;2023-12-14T10:40:29;97867.00;;;6.94;100.00
68226;BME280;55045;49.410;11.030;2023-12-14T10:43:36;97867.63;;;7.01;100.00
68226;BME280;55045;49.410;11.030;2023-12-14T10:46:54;97868.16;;;7.09;100.00
68226;BME280;55045;49.410;11.030;2023-12-14T10:50:00;97872.22;;;7.16;100.00
68226;BME280;55045;49.410;11.030;2023-12-14T10:53:05;97878.97;;;7.19;100.00
68226;BME280;55045;49.410;11.030;2023-12-14T10:56:11;97873.88;;;7.17;100.00
68226;BME280;55045;49.410;11.030;2023-12-14T10:59:15;97871.31;;;7.17;100.00
68226;BME280;55045;49.410;11.030;2023-12-14T11:02:19;97873.41;;;7.30;100.00
68226;BME280;55045;49.410;11.030;2023-12-14T11:05:27;97880.25;;;7.31;100.00
68226;BME280;55045;49.410;11.030;2023-12-14T11:08:34;97882.81;;;7.31;100.00
68226;BME280;55045;49.410;11.030;2023-12-14T11:11:40;97895.44;;;7.38;100.00
68226;BME280;55045;49.410;11.030;2023-12-14T11:14:46;97901.13;;;7.46;100.00
68226;BME280;55045;49.410;11.030;2023-12-14T11:18:20;97898.44;;;7.49;100.00
68226;BME280;55045;49.410;11.030;2023-12-14T11:21:26;97903.22;;;7.59;100.00
68226;BME280;55045;49.410;11.030;2023-12-14T11:24:30;97901.13;;;7.68;100.00
68226;BME280;55045;49.410;11.030;2023-12-14T11:27:42;97913.25;;;7.66;100.00
68226;BME280;55045;49.410;11.030;2023-12-14T11:30:47;97907.22;;;7.66;100.00
68226;BME280;55045;49.410;11.030;2023-12-14T11:33:58;97927.88;;;7.66;100.00
68226;BME280;55045;49.410;11.030;2023-12-14T11:37:04;97921.09;;;7.63;100.00
68226;BME280;55045;49.410;11.030;2023-12-14T11:40:09;97926.59;;;7.76;100.00
68226;BME280;55045;49.410;11.030;2023-12-14T11:43:13;97918.00;;;7.77;100.00
68226;BME280;55045;49.410;11.030;2023-12-14T11:46:18;97921.16;;;7.84;100.00
68226;BME280;55045;49.410;11.030;2023-12-14T11:49:24;97931.00;;;7.74;100.00
68226;BME280;55045;49.410;11.030;2023-12-14T11:52:29;97932.88;;;7.70;100.00
68226;BME280;55045;49.410;11.030;2023-12-14T11:55:34;97935.31;;;7.73;100.00
68226;BME280;55045;49.410;11.030;2023-12-14T11:58:40;97933.50;;;7.75;100.00
68226;BME280;55045;49.410;11.030;2023-12-14T12:01:55;97925.00;;;7.73;100.00
68226;BME280;55045;49.410;11.030;2023-12-14T12:04:59;97935.22;;;7.76;100.00
68226;BME280;55045;49.410;11.030;2023-12-14T12:08:04;97916.25;;;7.77;100.00
68226;BME280;55045;49.410;11.030;2023-12-14T12:11:30;97904.44;;;7.50;100.00
68226;BME280;55045;49.410;11.030;2023-12-14T12:15:32;97933.34;;;7.80;100.00
68226;BME280;55045;49.410;11.030;2023-12-14T12:19:42;97849.28;;;7.31;100.00
68226;BME280;55045;49.410;11.030;2023-12-14T12:29:39;97943.63;;;7.82;100.00
68226;BME280;55045;49.410;11.030;2023-12-14T12:35:45;97942.78;;;7.81;100.00
68226;BME280;55045;49.410;11.030;2023-12-14T13:24:25;97987.47;;;7.38;100.00
68226;BME280;55045;49.410;11.030;2023-12-14T13:27:30;98000.25;;;7.41;100.00
68226;BME280;55045;49.410;11.030;2023-12-14T13:30:34;98000.94;;;7.46;100.00
68226;BME280;55045;49.410;11.030;2023-12-14T13:33:38;98010.44;;;7.44;100.00
68226;BME280;55045;49.410;11.030;2023-12-14T13:36:43;98002.88;;;7.39;100.00
68226;BME280;55045;49.410;11.030;2023-12-14T13:40:06;98011.69;;;7.34;100.00
68226;BME280;55045;49.410;11.030;2023-12-14T13:44:36;98028.13;;;7.31;100.00
68226;BME280;55045;49.410;11.030;2023-12-14T13:48:58;97945.25;;;6.70;100.00
68226;BME280;55045;49.410;11.030;2023-12-14T14:06:27;98072.88;;;7.07;100.00
68226;BME280;55045;49.410;11.030;2023-12-14T14:10:24;98102.31;;;7.00;100.00
68226;BME280;55045;49.410;11.030;2023-12-14T14:14:42;98090.63;;;6.89;100.00
68226;BME280;55045;49.410;11.030;2023-12-14T14:19:31;98096.09;;;6.80;100.00
68226;BME280;55045;49.410;11.030;2023-12-14T14:24:27;98051.88;;;6.41;100.00
68226;BME280;55045;49.410;11.030;2023-12-14T14:29:16;98121.22;;;6.74;100.00
68226;BME280;55045;49.410;11.030;2023-12-14T14:34:26;98171.38;;;6.63;100.00
68226;BME280;55045;49.410;11.030;2023-12-14T14:43:24;98150.88;;;6.60;100.00
68226;BME280;55045;49.410;11.030;2023-12-14T14:48:19;98160.34;;;6.60;100.00
68226;BME280;55045;49.410;11.030;2023-12-14T14:58:18;98168.63;;;6.70;100.00
68226;BME280;55045;49.410;11.030;2023-12-14T15:02:20;98187.69;;;6.64;100.00
68226;BME280;55045;49.410;11.030;2023-12-14T15:08:47;98178.03;;;6.43;100.00
68226;BME280;55045;49.410;11.030;2023-12-14T15:11:34;98209.25;;;6.61;100.00
68226;BME280;55045;49.410;11.030;2023-12-14T15:15:48;98198.09;;;6.61;100.00
68226;BME280;55045;49.410;11.030;2023-12-14T15:19:12;98223.13;;;6.57;100.00
68226;BME280;55045;49.410;11.030;2023-12-14T15:26:50;98219.66;;;6.58;100.00
68226;BME280;55045;49.410;11.030;2023-12-14T15:30:16;98233.38;;;6.59;100.00
68226;BME280;55045;49.410;11.030;2023-12-14T15:33:40;98228.28;;;6.57;100.00
68226;BME280;55045;49.410;11.030;2023-12-14T15:36:53;98238.47;;;6.60;100.00
68226;BME280;55045;49.410;11.030;2023-12-14T15:39:56;98239.22;;;6.66;100.00
68226;BME280;55045;49.410;11.030;2023-12-14T15:43:00;98252.88;;;6.68;100.00
68226;BME280;55045;49.410;11.030;2023-12-14T15:46:05;98252.25;;;6.59;100.00
68226;BME280;55045;49.410;11.030;2023-12-14T15:49:10;98259.84;;;6.64;100.00
68226;BME280;55045;49.410;11.030;2023-12-14T15:52:14;98265.19;;;6.58;100.00
68226;BME280;55045;49.410;11.030;2023-12-14T15:55:18;98266.97;;;6.56;100.00
68226;BME280;55045;49.410;11.030;2023-12-14T15:58:24;98281.59;;;6.55;100.00
68226;BME280;55045;49.410;11.030;2023-12-14T16:01:29;98282.34;;;6.59;100.00
68226;BME280;55045;49.410;11.030;2023-12-14T16:04:34;98290.97;;;6.58;100.00
68226;BME280;55045;49.410;11.030;2023-12-14T16:07:38;98297.00;;;6.57;100.00
68226;BME280;55045;49.410;11.030;2023-12-14T16:10:42;98303.06;;;6.56;100.00
68226;BME280;55045;49.410;11.030;2023-12-14T16:13:48;98306.59;;;6.52;100.00
68226;BME280;55045;49.410;11.030;2023-12-14T16:16:54;98304.16;;;6.47;100.00
68226;BME280;55045;49.410;11.030;2023-12-14T16:19:59;98317.84;;;6.49;100.00
68226;BME280;55045;49.410;11.030;2023-12-14T16:23:03;98317.03;;;6.47;100.00
68226;BME280;55045;49.410;11.030;2023-12-14T16:26:10;98323.25;;;6.40;100.00
68226;BME280;55045;49.410;11.030;2023-12-14T16:29:14;98326.50;;;6.47;100.00
68226;BME280;55045;49.410;11.030;2023-12-14T16:34:21;98332.91;;;6.32;100.00
68226;BME280;55045;49.410;11.030;2023-12-14T16:37:25;98324.41;;;6.30;100.00
68226;BME280;55045;49.410;11.030;2023-12-14T16:40:33;98342.28;;;6.36;100.00
68226;BME280;55045;49.410;11.030;2023-12-14T16:43:36;98343.13;;;6.37;100.00
68226;BME280;55045;49.410;11.030;2023-12-14T16:46:41;98341.09;;;6.48;100.00
68226;BME280;55045;49.410;11.030;2023-12-14T16:49:46;98358.44;;;6.41;100.00
68226;BME280;55045;49.410;11.030;2023-12-14T16:52:49;98365.41;;;6.38;100.00
68226;BME280;55045;49.410;11.030;2023-12-14T16:55:55;98370.66;;;6.33;100.00
68226;BME280;55045;49.410;11.030;2023-12-14T16:59:01;98370.59;;;6.36;100.00
68226;BME280;55045;49.410;11.030;2023-12-14T17:02:05;98370.75;;;6.30;100.00
68226;BME280;55045;49.410;11.030;2023-12-14T17:05:10;98376.91;;;6.26;100.00
68226;BME280;55045;49.410;11.030;2023-12-14T17:08:14;98382.09;;;6.23;100.00
68226;BME280;55045;49.410;11.030;2023-12-14T17:11:18;98393.06;;;6.31;100.00
68226;BME280;55045;49.410;11.030;2023-12-14T17:14:23;98406.13;;;6.25;100.00
68226;BME280;55045;49.410;11.030;2023-12-14T17:17:28;98380.09;;;6.03;100.00
68226;BME280;55045;49.410;11.030;2023-12-14T17:20:38;98414.88;;;6.18;100.00
68226;BME280;55045;49.410;11.030;2023-12-14T17:23:41;98425.03;;;6.24;100.00
68226;BME280;55045;49.410;11.030;2023-12-14T17:26:49;98437.09;;;6.22;100.00
68226;BME280;55045;49.410;11.030;2023-12-14T17:29:52;98434.56;;;6.20;100.00
68226;BME280;55045;49.410;11.030;2023-12-14T17:32:56;98435.72;;;6.09;100.00
68226;BME280;55045;49.410;11.030;2023-12-14T17:36:03;98442.47;;;6.13;100.00
68226;BME280;55045;49.410;11.030;2023-12-14T17:39:07;98450.13;;;6.16;100.00
68226;BME280;55045;49.410;11.030;2023-12-14T17:42:11;98448.50;;;6.13;100.00
68226;BME280;55045;49.410;11.030;2023-12-14T17:45:21;98455.38;;;6.11;100.00
68226;BME280;55045;49.410;11.030;2023-12-14T17:48:25;98458.00;;;6.10;100.00
68226;BME280;55045;49.410;11.030;2023-12-14T17:51:30;98465.84;;;6.05;100.00
68226;BME280;55045;49.410;11.030;2023-12-14T17:54:36;98467.59;;;6.04;100.00
68226;BME280;55045;49.410;11.030;2023-12-14T17:57:40;98474.47;;;6.04;100.00
68226;BME280;55045;49.410;11.030;2023-12-14T18:00:44;98489.13;;;6.00;100.00
68226;BME280;55045;49.410;11.030;2023-12-14T18:03:48;98491.72;;;5.99;100.00
68226;BME280;55045;49.410;11.030;2023-12-14T18:06:53;98480.59;;;5.98;100.00
68226;BME280;55045;49.410;11.030;2023-12-14T18:09:56;98494.44;;;5.94;100.00
68226;BME280;55045;49.410;11.030;2023-12-14T18:13:00;98485.03;;;5.92;100.00
68226;BME280;55045;49.410;11.030;2023-12-14T18:16:07;98493.59;;;5.94;100.00
68226;BME280;55045;49.410;11.030;2023-12-14T18:19:11;98500.47;;;5.93;100.00
68226;BME280;55045;49.410;11.030;2023-12-14T18:22:16;98512.44;;;5.94;100.00
68226;BME280;55045;49.410;11.030;2023-12-14T18:25:20;98509.91;;;5.93;100.00
68226;BME280;55045;49.410;11.030;2023-12-14T18:28:25;98515.13;;;5.88;100.00